sensor_id;sensor_type;location;lat;lon;timestamp;P1;durP1;ratioP1;P2;durP2;ratioP2
17024;SDS011;8629;42.496;25.620;2023-07-20T00:01:39;12.23;;;7.33;;
17024;SDS011;8629;42.496;25.620;2023-07-20T00:04:10;10.37;;;6.27;;
17024;SDS011;8629;42.496;25.620;2023-07-20T00:06:37;6.53;;;5.87;;
17024;SDS011;8629;42.496;25.620;2023-07-20T00:09:05;6.17;;;5.57;;
17024;SDS011;8629;42.496;25.620;2023-07-20T00:11:35;6.13;;;5.47;;
17024;SDS011;8629;42.496;25.620;2023-07-20T00:14:02;7.43;;;6.03;;
17024;SDS011;8629;42.496;25.620;2023-07-20T00:16:31;6.43;;;5.27;;
17024;SDS011;8629;42.496;25.620;2023-07-20T00:18:58;7.63;;;5.60;;
17024;SDS011;8629;42.496;25.620;2023-07-20T00:21:26;8.73;;;5.53;;
17024;SDS011;8629;42.496;25.620;2023-07-20T00:23:53;6.37;;;5.33;;
17024;SDS011;8629;42.496;25.620;2023-07-20T00:26:20;5.27;;;4.77;;
17024;SDS011;8629;42.496;25.620;2023-07-20T00:28:49;5.50;;;4.73;;
17024;SDS011;8629;42.496;25.620;2023-07-20T00:31:16;6.57;;;4.67;;
17024;SDS011;8629;42.496;25.620;2023-07-20T00:33:45;6.87;;;4.37;;
17024;SDS011;8629;42.496;25.620;2023-07-20T00:36:12;6.93;;;4.60;;
17024;SDS011;8629;42.496;25.620;2023-07-20T00:38:39;5.00;;;4.40;;
17024;SDS011;8629;42.496;25.620;2023-07-20T00:41:06;7.03;;;4.53;;
17024;SDS011;8629;42.496;25.620;2023-07-20T00:43:33;6.50;;;4.47;;
17024;SDS011;8629;42.496;25.620;2023-07-20T00:46:00;5.97;;;4.47;;
17024;SDS011;8629;42.496;25.620;2023-07-20T00:48:28;7.30;;;4.30;;
17024;SDS011;8629;42.496;25.620;2023-07-20T00:50:57;12.63;;;3.83;;
17024;SDS011;8629;42.496;25.620;2023-07-20T00:53:25;3.83;;;3.40;;
17024;SDS011;8629;42.496;25.620;2023-07-20T00:55:52;7.50;;;3.73;;
17024;SDS011;8629;42.496;25.620;2023-07-20T00:58:19;4.43;;;3.63;;
17024;SDS011;8629;42.496;25.620;2023-07-20T01:00:46;8.77;;;3.93;;
17024;SDS011;8629;42.496;25.620;2023-07-20T01:03:13;4.67;;;3.90;;
17024;SDS011;8629;42.496;25.620;2023-07-20T01:05:40;7.67;;;3.30;;
17024;SDS011;8629;42.496;25.620;2023-07-20T01:08:15;7.20;;;3.23;;
17024;SDS011;8629;42.496;25.620;2023-07-20T01:10:49;5.78;;;3.20;;
17024;SDS011;8629;42.496;25.620;2023-07-20T01:13:18;7.35;;;3.67;;
17024;SDS011;8629;42.496;25.620;2023-07-20T01:15:49;5.83;;;4.17;;
17024;SDS011;8629;42.496;25.620;2023-07-20T01:18:16;8.43;;;4.13;;
17024;SDS011;8629;42.496;25.620;2023-07-20T01:20:44;10.57;;;4.67;;
17024;SDS011;8629;42.496;25.620;2023-07-20T01:23:19;8.97;;;3.97;;
17024;SDS011;8629;42.496;25.620;2023-07-20T01:26:08;6.93;;;4.43;;
17024;SDS011;8629;42.496;25.620;2023-07-20T01:28:57;6.77;;;3.70;;
17024;SDS011;8629;42.496;25.620;2023-07-20T01:31:35;4.90;;;4.00;;
17024;SDS011;8629;42.496;25.620;2023-07-20T01:34:03;7.93;;;3.73;;
17024;SDS011;8629;42.496;25.620;2023-07-20T01:36:30;9.20;;;4.50;;
17024;SDS011;8629;42.496;25.620;2023-07-20T01:38:59;5.50;;;3.70;;
17024;SDS011;8629;42.496;25.620;2023-07-20T01:41:27;6.28;;;3.72;;
17024;SDS011;8629;42.496;25.620;2023-07-20T01:43:57;10.20;;;4.27;;
17024;SDS011;8629;42.496;25.620;2023-07-20T01:46:24;9.33;;;3.73;;
17024;SDS011;8629;42.496;25.620;2023-07-20T01:48:53;9.17;;;4.73;;
17024;SDS011;8629;42.496;25.620;2023-07-20T01:51:21;11.33;;;4.00;;
17024;SDS011;8629;42.496;25.620;2023-07-20T01:53:48;4.53;;;3.23;;
17024;SDS011;8629;42.496;25.620;2023-07-20T01:56:15;7.50;;;4.17;;
17024;SDS011;8629;42.496;25.620;2023-07-20T01:58:42;5.27;;;2.83;;
17024;SDS011;8629;42.496;25.620;2023-07-20T02:01:09;10.07;;;3.67;;
17024;SDS011;8629;42.496;25.620;2023-07-20T02:03:36;7.03;;;3.23;;
17024;SDS011;8629;42.496;25.620;2023-07-20T02:06:04;8.98;;;4.10;;
17024;SDS011;8629;42.496;25.620;2023-07-20T02:08:31;6.93;;;3.83;;
17024;SDS011;8629;42.496;25.620;2023-07-20T02:10:58;10.50;;;3.70;;
17024;SDS011;8629;42.496;25.620;2023-07-20T02:13:25;6.13;;;3.97;;
17024;SDS011;8629;42.496;25.620;2023-07-20T02:15:52;10.87;;;4.00;;
17024;SDS011;8629;42.496;25.620;2023-07-20T02:18:19;9.77;;;4.53;;
17024;SDS011;8629;42.496;25.620;2023-07-20T02:20:46;7.73;;;3.50;;
17024;SDS011;8629;42.496;25.620;2023-07-20T02:23:15;6.50;;;3.73;;
17024;SDS011;8629;42.496;25.620;2023-07-20T02:25:43;10.27;;;3.20;;
17024;SDS011;8629;42.496;25.620;2023-07-20T02:28:10;5.37;;;3.30;;
17024;SDS011;8629;42.496;25.620;2023-07-20T02:30:39;5.87;;;3.60;;
17024;SDS011;8629;42.496;25.620;2023-07-20T02:33:06;4.43;;;3.43;;
17024;SDS011;8629;42.496;25.620;2023-07-20T02:35:34;5.35;;;3.63;;
17024;SDS011;8629;42.496;25.620;2023-07-20T02:38:01;7.07;;;3.50;;
17024;SDS011;8629;42.496;25.620;2023-07-20T02:40:29;5.27;;;3.97;;
17024;SDS011;8629;42.496;25.620;2023-07-20T02:42:56;6.67;;;3.53;;
17024;SDS011;8629;42.496;25.620;2023-07-20T02:45:23;7.27;;;3.50;;
17024;SDS011;8629;42.496;25.620;2023-07-20T02:47:50;7.73;;;3.23;;
17024;SDS011;8629;42.496;25.620;2023-07-20T02:50:17;6.57;;;3.33;;
17024;SDS011;8629;42.496;25.620;2023-07-20T02:52:44;13.03;;;3.43;;
17024;SDS011;8629;42.496;25.620;2023-07-20T02:55:11;8.60;;;3.83;;
17024;SDS011;8629;42.496;25.620;2023-07-20T02:57:40;7.77;;;3.90;;
17024;SDS011;8629;42.496;25.620;2023-07-20T03:00:07;6.50;;;4.03;;
17024;SDS011;8629;42.496;25.620;2023-07-20T03:02:35;6.10;;;3.97;;
17024;SDS011;8629;42.496;25.620;2023-07-20T03:05:02;14.20;;;4.93;;
17024;SDS011;8629;42.496;25.620;2023-07-20T03:07:32;7.93;;;3.83;;
17024;SDS011;8629;42.496;25.620;2023-07-20T03:09:59;8.43;;;4.27;;
17024;SDS011;8629;42.496;25.620;2023-07-20T03:12:27;7.83;;;3.37;;
17024;SDS011;8629;42.496;25.620;2023-07-20T03:14:56;5.00;;;3.60;;
17024;SDS011;8629;42.496;25.620;2023-07-20T03:17:23;5.13;;;3.47;;
17024;SDS011;8629;42.496;25.620;2023-07-20T03:19:50;9.00;;;4.17;;
17024;SDS011;8629;42.496;25.620;2023-07-20T03:22:16;9.13;;;3.87;;
17024;SDS011;8629;42.496;25.620;2023-07-20T03:24:43;6.73;;;3.43;;
17024;SDS011;8629;42.496;25.620;2023-07-20T03:27:10;4.67;;;3.40;;
17024;SDS011;8629;42.496;25.620;2023-07-20T03:29:37;5.30;;;3.60;;
17024;SDS011;8629;42.496;25.620;2023-07-20T03:32:05;5.60;;;3.27;;
17024;SDS011;8629;42.496;25.620;2023-07-20T03:34:32;7.90;;;3.40;;
17024;SDS011;8629;42.496;25.620;2023-07-20T03:36:59;8.00;;;3.93;;
17024;SDS011;8629;42.496;25.620;2023-07-20T03:39:26;5.33;;;3.30;;
17024;SDS011;8629;42.496;25.620;2023-07-20T03:41:53;7.37;;;3.47;;
17024;SDS011;8629;42.496;25.620;2023-07-20T03:44:20;9.20;;;3.30;;
17024;SDS011;8629;42.496;25.620;2023-07-20T03:46:47;12.20;;;4.60;;
17024;SDS011;8629;42.496;25.620;2023-07-20T03:49:15;9.87;;;3.33;;
17024;SDS011;8629;42.496;25.620;2023-07-20T03:51:43;7.67;;;4.10;;
17024;SDS011;8629;42.496;25.620;2023-07-20T03:54:09;6.60;;;3.67;;
17024;SDS011;8629;42.496;25.620;2023-07-20T03:56:36;4.33;;;3.37;;
17024;SDS011;8629;42.496;25.620;2023-07-20T03:59:04;4.70;;;3.50;;
17024;SDS011;8629;42.496;25.620;2023-07-20T04:01:31;6.30;;;4.00;;
17024;SDS011;8629;42.496;25.620;2023-07-20T04:04:02;6.47;;;3.93;;
17024;SDS011;8629;42.496;25.620;2023-07-20T04:06:32;7.43;;;4.10;;
17024;SDS011;8629;42.496;25.620;2023-07-20T04:08:58;8.67;;;4.10;;
17024;SDS011;8629;42.496;25.620;2023-07-20T04:11:25;4.83;;;3.50;;
17024;SDS011;8629;42.496;25.620;2023-07-20T04:13:52;8.13;;;4.10;;
17024;SDS011;8629;42.496;25.620;2023-07-20T04:16:19;10.73;;;4.73;;
17024;SDS011;8629;42.496;25.620;2023-07-20T04:18:46;5.87;;;4.60;;
17024;SDS011;8629;42.496;25.620;2023-07-20T04:21:13;8.73;;;4.40;;
17024;SDS011;8629;42.496;25.620;2023-07-20T04:23:41;5.70;;;4.63;;
17024;SDS011;8629;42.496;25.620;2023-07-20T04:26:08;7.37;;;4.37;;
17024;SDS011;8629;42.496;25.620;2023-07-20T04:28:35;4.90;;;4.07;;
17024;SDS011;8629;42.496;25.620;2023-07-20T04:31:11;11.30;;;4.40;;
17024;SDS011;8629;42.496;25.620;2023-07-20T04:33:38;5.17;;;4.57;;
17024;SDS011;8629;42.496;25.620;2023-07-20T04:36:05;10.03;;;4.50;;
17024;SDS011;8629;42.496;25.620;2023-07-20T04:38:32;7.33;;;4.80;;
17024;SDS011;8629;42.496;25.620;2023-07-20T04:41:00;6.73;;;4.30;;
17024;SDS011;8629;42.496;25.620;2023-07-20T04:43:28;14.80;;;4.63;;
17024;SDS011;8629;42.496;25.620;2023-07-20T04:45:56;9.23;;;4.60;;
17024;SDS011;8629;42.496;25.620;2023-07-20T04:48:23;6.30;;;4.73;;
17024;SDS011;8629;42.496;25.620;2023-07-20T04:50:50;7.03;;;4.90;;
17024;SDS011;8629;42.496;25.620;2023-07-20T04:53:17;7.53;;;4.60;;
17024;SDS011;8629;42.496;25.620;2023-07-20T04:55:47;9.37;;;5.00;;
17024;SDS011;8629;42.496;25.620;2023-07-20T04:58:17;9.70;;;4.80;;
17024;SDS011;8629;42.496;25.620;2023-07-20T05:00:44;8.37;;;5.00;;
17024;SDS011;8629;42.496;25.620;2023-07-20T05:03:11;6.30;;;4.53;;
17024;SDS011;8629;42.496;25.620;2023-07-20T05:05:38;6.00;;;4.53;;
17024;SDS011;8629;42.496;25.620;2023-07-20T05:08:04;6.17;;;5.57;;
17024;SDS011;8629;42.496;25.620;2023-07-20T05:10:31;7.10;;;4.90;;
17024;SDS011;8629;42.496;25.620;2023-07-20T05:12:58;5.33;;;4.87;;
17024;SDS011;8629;42.496;25.620;2023-07-20T05:15:26;7.33;;;5.17;;
17024;SDS011;8629;42.496;25.620;2023-07-20T05:17:53;9.57;;;5.37;;
17024;SDS011;8629;42.496;25.620;2023-07-20T05:20:20;10.10;;;5.50;;
17024;SDS011;8629;42.496;25.620;2023-07-20T05:22:47;8.37;;;5.53;;
17024;SDS011;8629;42.496;25.620;2023-07-20T05:25:14;10.37;;;4.93;;
17024;SDS011;8629;42.496;25.620;2023-07-20T05:27:43;8.13;;;4.83;;
17024;SDS011;8629;42.496;25.620;2023-07-20T05:30:10;4.90;;;4.30;;
17024;SDS011;8629;42.496;25.620;2023-07-20T05:32:39;6.23;;;4.37;;
17024;SDS011;8629;42.496;25.620;2023-07-20T05:35:06;7.07;;;4.43;;
17024;SDS011;8629;42.496;25.620;2023-07-20T05:37:36;6.80;;;4.40;;
17024;SDS011;8629;42.496;25.620;2023-07-20T05:40:03;7.37;;;3.80;;
17024;SDS011;8629;42.496;25.620;2023-07-20T05:42:31;16.33;;;5.40;;
17024;SDS011;8629;42.496;25.620;2023-07-20T05:44:58;5.40;;;4.90;;
17024;SDS011;8629;42.496;25.620;2023-07-20T05:47:24;5.30;;;4.73;;
17024;SDS011;8629;42.496;25.620;2023-07-20T05:49:53;14.43;;;5.20;;
17024;SDS011;8629;42.496;25.620;2023-07-20T05:52:19;9.60;;;4.73;;
17024;SDS011;8629;42.496;25.620;2023-07-20T05:54:46;8.23;;;4.03;;
17024;SDS011;8629;42.496;25.620;2023-07-20T05:57:13;7.80;;;5.63;;
17024;SDS011;8629;42.496;25.620;2023-07-20T05:59:40;7.50;;;4.80;;
17024;SDS011;8629;42.496;25.620;2023-07-20T06:02:09;11.60;;;4.70;;
17024;SDS011;8629;42.496;25.620;2023-07-20T06:04:36;7.03;;;4.73;;
17024;SDS011;8629;42.496;25.620;2023-07-20T06:07:04;7.10;;;4.87;;
17024;SDS011;8629;42.496;25.620;2023-07-20T06:09:32;10.83;;;6.47;;
17024;SDS011;8629;42.496;25.620;2023-07-20T06:11:59;12.55;;;5.28;;
17024;SDS011;8629;42.496;25.620;2023-07-20T06:14:26;10.63;;;5.65;;
17024;SDS011;8629;42.496;25.620;2023-07-20T06:16:53;5.13;;;4.47;;
17024;SDS011;8629;42.496;25.620;2023-07-20T06:19:20;9.60;;;5.70;;
17024;SDS011;8629;42.496;25.620;2023-07-20T06:21:47;5.28;;;4.78;;
17024;SDS011;8629;42.496;25.620;2023-07-20T06:24:16;6.93;;;5.40;;
17024;SDS011;8629;42.496;25.620;2023-07-20T06:26:43;9.35;;;5.57;;
17024;SDS011;8629;42.496;25.620;2023-07-20T06:29:09;7.05;;;4.72;;
17024;SDS011;8629;42.496;25.620;2023-07-20T06:31:36;5.25;;;4.68;;
17024;SDS011;8629;42.496;25.620;2023-07-20T06:34:03;7.00;;;4.38;;
17024;SDS011;8629;42.496;25.620;2023-07-20T06:36:30;8.25;;;4.85;;
17024;SDS011;8629;42.496;25.620;2023-07-20T06:38:57;5.38;;;4.75;;
17024;SDS011;8629;42.496;25.620;2023-07-20T06:41:25;9.65;;;5.28;;
17024;SDS011;8629;42.496;25.620;2023-07-20T06:43:52;8.25;;;5.03;;
17024;SDS011;8629;42.496;25.620;2023-07-20T06:46:23;5.38;;;4.60;;
17024;SDS011;8629;42.496;25.620;2023-07-20T06:48:50;6.75;;;5.45;;
17024;SDS011;8629;42.496;25.620;2023-07-20T06:51:17;10.70;;;6.63;;
17024;SDS011;8629;42.496;25.620;2023-07-20T06:53:44;8.35;;;4.93;;
17024;SDS011;8629;42.496;25.620;2023-07-20T06:56:11;5.25;;;4.40;;
17024;SDS011;8629;42.496;25.620;2023-07-20T06:58:40;5.55;;;5.00;;
17024;SDS011;8629;42.496;25.620;2023-07-20T07:01:07;7.40;;;4.40;;
17024;SDS011;8629;42.496;25.620;2023-07-20T07:03:34;5.65;;;4.72;;
17024;SDS011;8629;42.496;25.620;2023-07-20T07:06:02;7.32;;;4.40;;
17024;SDS011;8629;42.496;25.620;2023-07-20T07:08:28;6.43;;;5.30;;
17024;SDS011;8629;42.496;25.620;2023-07-20T07:10:55;5.95;;;5.18;;
17024;SDS011;8629;42.496;25.620;2023-07-20T07:13:23;5.40;;;4.88;;
17024;SDS011;8629;42.496;25.620;2023-07-20T07:15:52;8.05;;;4.57;;
17024;SDS011;8629;42.496;25.620;2023-07-20T07:18:18;10.25;;;5.32;;
17024;SDS011;8629;42.496;25.620;2023-07-20T07:20:51;6.93;;;5.53;;
17024;SDS011;8629;42.496;25.620;2023-07-20T07:23:18;8.23;;;5.20;;
17024;SDS011;8629;42.496;25.620;2023-07-20T07:25:45;4.93;;;4.32;;
17024;SDS011;8629;42.496;25.620;2023-07-20T07:28:12;11.55;;;5.38;;
17024;SDS011;8629;42.496;25.620;2023-07-20T07:30:39;5.40;;;4.88;;
17024;SDS011;8629;42.496;25.620;2023-07-20T07:33:07;5.82;;;5.05;;
17024;SDS011;8629;42.496;25.620;2023-07-20T07:35:35;7.22;;;4.75;;
17024;SDS011;8629;42.496;25.620;2023-07-20T07:38:02;6.20;;;5.60;;
17024;SDS011;8629;42.496;25.620;2023-07-20T07:40:29;5.35;;;4.95;;
17024;SDS011;8629;42.496;25.620;2023-07-20T07:42:55;8.10;;;5.22;;
17024;SDS011;8629;42.496;25.620;2023-07-20T07:45:23;5.38;;;4.88;;
17024;SDS011;8629;42.496;25.620;2023-07-20T07:47:50;9.00;;;5.03;;
17024;SDS011;8629;42.496;25.620;2023-07-20T07:50:18;8.82;;;5.97;;
17024;SDS011;8629;42.496;25.620;2023-07-20T07:52:46;12.30;;;6.90;;
17024;SDS011;8629;42.496;25.620;2023-07-20T07:55:13;5.55;;;5.05;;
17024;SDS011;8629;42.496;25.620;2023-07-20T07:57:41;7.65;;;5.38;;
17024;SDS011;8629;42.496;25.620;2023-07-20T08:00:09;8.07;;;5.15;;
17024;SDS011;8629;42.496;25.620;2023-07-20T08:02:39;10.68;;;5.45;;
17024;SDS011;8629;42.496;25.620;2023-07-20T08:05:07;7.30;;;5.93;;
17024;SDS011;8629;42.496;25.620;2023-07-20T08:07:35;7.57;;;4.95;;
17024;SDS011;8629;42.496;25.620;2023-07-20T08:10:03;6.68;;;4.57;;
17024;SDS011;8629;42.496;25.620;2023-07-20T08:12:30;6.85;;;4.90;;
17024;SDS011;8629;42.496;25.620;2023-07-20T08:14:57;7.63;;;5.63;;
17024;SDS011;8629;42.496;25.620;2023-07-20T08:17:23;5.30;;;4.80;;
17024;SDS011;8629;42.496;25.620;2023-07-20T08:19:50;9.30;;;5.78;;
17024;SDS011;8629;42.496;25.620;2023-07-20T08:22:17;6.78;;;5.50;;
17024;SDS011;8629;42.496;25.620;2023-07-20T08:24:45;7.38;;;5.55;;
17024;SDS011;8629;42.496;25.620;2023-07-20T08:27:12;7.10;;;5.82;;
17024;SDS011;8629;42.496;25.620;2023-07-20T08:29:39;5.75;;;4.78;;
17024;SDS011;8629;42.496;25.620;2023-07-20T08:32:06;7.82;;;5.22;;
17024;SDS011;8629;42.496;25.620;2023-07-20T08:34:33;9.40;;;5.82;;
17024;SDS011;8629;42.496;25.620;2023-07-20T08:37:00;6.30;;;5.63;;
17024;SDS011;8629;42.496;25.620;2023-07-20T08:39:27;9.13;;;5.65;;
17024;SDS011;8629;42.496;25.620;2023-07-20T08:41:55;7.53;;;5.53;;
17024;SDS011;8629;42.496;25.620;2023-07-20T08:44:22;6.65;;;5.25;;
17024;SDS011;8629;42.496;25.620;2023-07-20T08:46:51;6.75;;;5.40;;
17024;SDS011;8629;42.496;25.620;2023-07-20T08:49:18;9.10;;;5.75;;
17024;SDS011;8629;42.496;25.620;2023-07-20T08:51:45;5.72;;;4.78;;
17024;SDS011;8629;42.496;25.620;2023-07-20T08:54:12;7.00;;;4.85;;
17024;SDS011;8629;42.496;25.620;2023-07-20T08:56:39;5.20;;;4.80;;
17024;SDS011;8629;42.496;25.620;2023-07-20T08:59:08;11.85;;;4.90;;
17024;SDS011;8629;42.496;25.620;2023-07-20T09:01:36;5.72;;;5.20;;
17024;SDS011;8629;42.496;25.620;2023-07-20T09:04:02;4.85;;;4.45;;
17024;SDS011;8629;42.496;25.620;2023-07-20T09:06:29;10.25;;;5.28;;
17024;SDS011;8629;42.496;25.620;2023-07-20T09:08:56;7.05;;;5.10;;
17024;SDS011;8629;42.496;25.620;2023-07-20T09:11:23;5.30;;;4.80;;
17024;SDS011;8629;42.496;25.620;2023-07-20T09:14:01;4.75;;;4.45;;
17024;SDS011;8629;42.496;25.620;2023-07-20T09:16:30;7.85;;;4.68;;
17024;SDS011;8629;42.496;25.620;2023-07-20T09:18:57;6.13;;;5.32;;
17024;SDS011;8629;42.496;25.620;2023-07-20T09:21:24;6.25;;;5.65;;
17024;SDS011;8629;42.496;25.620;2023-07-20T09:23:56;6.82;;;5.47;;
17024;SDS011;8629;42.496;25.620;2023-07-20T09:26:23;6.93;;;4.68;;
17024;SDS011;8629;42.496;25.620;2023-07-20T09:28:50;7.25;;;5.25;;
17024;SDS011;8629;42.496;25.620;2023-07-20T09:31:19;6.35;;;5.25;;
17024;SDS011;8629;42.496;25.620;2023-07-20T09:33:48;5.85;;;5.28;;
17024;SDS011;8629;42.496;25.620;2023-07-20T09:36:16;6.70;;;5.70;;
17024;SDS011;8629;42.496;25.620;2023-07-20T09:38:43;6.38;;;5.25;;
17024;SDS011;8629;42.496;25.620;2023-07-20T09:41:12;7.22;;;5.22;;
17024;SDS011;8629;42.496;25.620;2023-07-20T09:43:39;5.20;;;4.70;;
17024;SDS011;8629;42.496;25.620;2023-07-20T09:46:06;5.30;;;4.80;;
17024;SDS011;8629;42.496;25.620;2023-07-20T09:48:33;5.50;;;5.00;;
17024;SDS011;8629;42.496;25.620;2023-07-20T09:51:01;5.97;;;4.88;;
17024;SDS011;8629;42.496;25.620;2023-07-20T09:53:28;6.13;;;5.10;;
17024;SDS011;8629;42.496;25.620;2023-07-20T09:55:55;7.65;;;5.43;;
17024;SDS011;8629;42.496;25.620;2023-07-20T09:58:22;7.82;;;5.28;;
17024;SDS011;8629;42.496;25.620;2023-07-20T10:00:50;6.22;;;5.40;;
17024;SDS011;8629;42.496;25.620;2023-07-20T10:03:18;11.35;;;5.05;;
17024;SDS011;8629;42.496;25.620;2023-07-20T10:05:46;9.63;;;5.05;;
17024;SDS011;8629;42.496;25.620;2023-07-20T10:08:17;5.43;;;4.82;;
17024;SDS011;8629;42.496;25.620;2023-07-20T10:10:45;5.35;;;4.75;;
17024;SDS011;8629;42.496;25.620;2023-07-20T10:13:16;6.07;;;4.82;;
17024;SDS011;8629;42.496;25.620;2023-07-20T10:15:46;5.20;;;4.47;;
17024;SDS011;8629;42.496;25.620;2023-07-20T10:18:17;6.95;;;4.70;;
17024;SDS011;8629;42.496;25.620;2023-07-20T10:20:50;5.53;;;4.63;;
17024;SDS011;8629;42.496;25.620;2023-07-20T10:23:19;8.48;;;4.30;;
17024;SDS011;8629;42.496;25.620;2023-07-20T10:25:46;4.90;;;4.10;;
17024;SDS011;8629;42.496;25.620;2023-07-20T10:28:13;7.28;;;4.65;;
17024;SDS011;8629;42.496;25.620;2023-07-20T10:30:40;7.07;;;5.05;;
17024;SDS011;8629;42.496;25.620;2023-07-20T10:33:08;6.03;;;4.63;;
17024;SDS011;8629;42.496;25.620;2023-07-20T10:35:50;5.55;;;4.40;;
17024;SDS011;8629;42.496;25.620;2023-07-20T10:38:17;6.95;;;5.05;;
17024;SDS011;8629;42.496;25.620;2023-07-20T10:40:45;7.65;;;4.57;;
17024;SDS011;8629;42.496;25.620;2023-07-20T10:43:20;5.15;;;4.32;;
17024;SDS011;8629;42.496;25.620;2023-07-20T10:45:50;5.78;;;4.45;;
17024;SDS011;8629;42.496;25.620;2023-07-20T10:48:18;5.38;;;4.25;;
17024;SDS011;8629;42.496;25.620;2023-07-20T10:50:46;8.02;;;4.57;;
17024;SDS011;8629;42.496;25.620;2023-07-20T10:53:36;5.32;;;4.32;;
17024;SDS011;8629;42.496;25.620;2023-07-20T10:56:08;5.00;;;4.55;;
17024;SDS011;8629;42.496;25.620;2023-07-20T10:58:38;8.13;;;4.40;;
17024;SDS011;8629;42.496;25.620;2023-07-20T11:01:06;7.35;;;4.97;;
17024;SDS011;8629;42.496;25.620;2023-07-20T11:03:33;5.07;;;4.57;;
17024;SDS011;8629;42.496;25.620;2023-07-20T11:09:09;7.68;;;3.90;;
17024;SDS011;8629;42.496;25.620;2023-07-20T11:11:41;5.30;;;3.60;;
17024;SDS011;8629;42.496;25.620;2023-07-20T11:14:09;5.28;;;3.67;;
17024;SDS011;8629;42.496;25.620;2023-07-20T11:16:39;6.10;;;4.53;;
17024;SDS011;8629;42.496;25.620;2023-07-20T11:19:13;5.95;;;3.65;;
17024;SDS011;8629;42.496;25.620;2023-07-20T11:21:42;4.57;;;3.42;;
17024;SDS011;8629;42.496;25.620;2023-07-20T11:24:10;5.72;;;3.20;;
17024;SDS011;8629;42.496;25.620;2023-07-20T11:26:46;3.83;;;2.72;;
17024;SDS011;8629;42.496;25.620;2023-07-20T11:29:15;4.40;;;3.42;;
17024;SDS011;8629;42.496;25.620;2023-07-20T11:31:43;5.43;;;3.70;;
17024;SDS011;8629;42.496;25.620;2023-07-20T11:34:11;9.60;;;4.43;;
17024;SDS011;8629;42.496;25.620;2023-07-20T11:36:39;5.38;;;3.90;;
17024;SDS011;8629;42.496;25.620;2023-07-20T11:39:07;6.65;;;3.97;;
17024;SDS011;8629;42.496;25.620;2023-07-20T11:41:35;6.43;;;4.03;;
17024;SDS011;8629;42.496;25.620;2023-07-20T11:44:03;3.50;;;3.13;;
17024;SDS011;8629;42.496;25.620;2023-07-20T11:46:31;3.95;;;3.20;;
17024;SDS011;8629;42.496;25.620;2023-07-20T11:48:58;10.18;;;3.40;;
17024;SDS011;8629;42.496;25.620;2023-07-20T11:51:26;5.55;;;3.65;;
17024;SDS011;8629;42.496;25.620;2023-07-20T11:53:56;4.20;;;3.13;;
17024;SDS011;8629;42.496;25.620;2023-07-20T11:56:23;6.20;;;3.78;;
17024;SDS011;8629;42.496;25.620;2023-07-20T11:58:50;4.72;;;2.85;;
17024;SDS011;8629;42.496;25.620;2023-07-20T12:01:18;8.70;;;3.05;;
17024;SDS011;8629;42.496;25.620;2023-07-20T12:03:45;7.18;;;3.78;;
17024;SDS011;8629;42.496;25.620;2023-07-20T12:06:14;3.78;;;3.28;;
17024;SDS011;8629;42.496;25.620;2023-07-20T12:08:41;3.70;;;3.30;;
17024;SDS011;8629;42.496;25.620;2023-07-20T12:11:08;4.47;;;2.85;;
17024;SDS011;8629;42.496;25.620;2023-07-20T12:13:35;4.03;;;3.08;;
17024;SDS011;8629;42.496;25.620;2023-07-20T12:16:06;4.15;;;2.63;;
17024;SDS011;8629;42.496;25.620;2023-07-20T12:18:37;4.38;;;2.78;;
17024;SDS011;8629;42.496;25.620;2023-07-20T12:21:05;3.55;;;2.95;;
17024;SDS011;8629;42.496;25.620;2023-07-20T12:23:34;3.25;;;2.63;;
17024;SDS011;8629;42.496;25.620;2023-07-20T12:26:02;4.15;;;2.80;;
17024;SDS011;8629;42.496;25.620;2023-07-20T12:28:30;6.68;;;3.03;;
17024;SDS011;8629;42.496;25.620;2023-07-20T12:30:57;3.97;;;2.72;;
17024;SDS011;8629;42.496;25.620;2023-07-20T12:33:24;5.03;;;3.22;;
17024;SDS011;8629;42.496;25.620;2023-07-20T12:35:52;6.70;;;3.25;;
17024;SDS011;8629;42.496;25.620;2023-07-20T12:38:21;5.22;;;3.35;;
17024;SDS011;8629;42.496;25.620;2023-07-20T12:40:50;8.98;;;4.07;;
17024;SDS011;8629;42.496;25.620;2023-07-20T12:43:17;3.88;;;3.05;;
17024;SDS011;8629;42.496;25.620;2023-07-20T12:45:44;5.32;;;3.17;;
17024;SDS011;8629;42.496;25.620;2023-07-20T12:48:11;6.50;;;3.10;;
17024;SDS011;8629;42.496;25.620;2023-07-20T12:50:38;7.00;;;3.83;;
17024;SDS011;8629;42.496;25.620;2023-07-20T12:53:06;5.55;;;3.63;;
17024;SDS011;8629;42.496;25.620;2023-07-20T12:55:33;3.25;;;2.90;;
17024;SDS011;8629;42.496;25.620;2023-07-20T12:57:59;4.20;;;2.92;;
17024;SDS011;8629;42.496;25.620;2023-07-20T13:00:26;4.55;;;2.30;;
17024;SDS011;8629;42.496;25.620;2023-07-20T13:02:53;5.78;;;3.38;;
17024;SDS011;8629;42.496;25.620;2023-07-20T13:05:20;3.88;;;2.70;;
17024;SDS011;8629;42.496;25.620;2023-07-20T13:07:47;6.68;;;2.85;;
17024;SDS011;8629;42.496;25.620;2023-07-20T13:10:15;3.00;;;2.47;;
17024;SDS011;8629;42.496;25.620;2023-07-20T13:12:44;5.47;;;3.30;;
17024;SDS011;8629;42.496;25.620;2023-07-20T13:15:11;4.35;;;2.80;;
17024;SDS011;8629;42.496;25.620;2023-07-20T13:17:38;2.83;;;2.63;;
17024;SDS011;8629;42.496;25.620;2023-07-20T13:20:06;6.10;;;2.55;;
17024;SDS011;8629;42.496;25.620;2023-07-20T13:22:35;4.50;;;2.80;;
17024;SDS011;8629;42.496;25.620;2023-07-20T13:25:02;3.60;;;2.17;;
17024;SDS011;8629;42.496;25.620;2023-07-20T13:27:30;6.13;;;2.85;;
17024;SDS011;8629;42.496;25.620;2023-07-20T13:29:57;3.08;;;2.47;;
17024;SDS011;8629;42.496;25.620;2023-07-20T13:32:25;3.20;;;2.63;;
17024;SDS011;8629;42.496;25.620;2023-07-20T13:34:52;3.40;;;2.50;;
17024;SDS011;8629;42.496;25.620;2023-07-20T13:37:19;3.90;;;2.55;;
17024;SDS011;8629;42.496;25.620;2023-07-20T13:39:47;5.07;;;2.65;;
17024;SDS011;8629;42.496;25.620;2023-07-20T13:42:16;2.80;;;2.55;;
17024;SDS011;8629;42.496;25.620;2023-07-20T13:44:44;5.28;;;2.95;;
17024;SDS011;8629;42.496;25.620;2023-07-20T13:47:11;10.57;;;3.05;;
17024;SDS011;8629;42.496;25.620;2023-07-20T13:49:38;6.53;;;4.05;;
17024;SDS011;8629;42.496;25.620;2023-07-20T13:52:05;8.77;;;3.67;;
17024;SDS011;8629;42.496;25.620;2023-07-20T13:54:34;4.47;;;3.20;;
17024;SDS011;8629;42.496;25.620;2023-07-20T13:57:01;5.43;;;3.40;;
17024;SDS011;8629;42.496;25.620;2023-07-20T13:59:27;5.35;;;3.33;;
17024;SDS011;8629;42.496;25.620;2023-07-20T14:01:55;4.55;;;3.60;;
17024;SDS011;8629;42.496;25.620;2023-07-20T14:04:22;4.30;;;3.90;;
17024;SDS011;8629;42.496;25.620;2023-07-20T14:06:49;4.57;;;2.97;;
17024;SDS011;8629;42.496;25.620;2023-07-20T14:09:16;4.53;;;3.03;;
17024;SDS011;8629;42.496;25.620;2023-07-20T14:11:43;7.60;;;3.35;;
17024;SDS011;8629;42.496;25.620;2023-07-20T14:14:10;4.40;;;3.20;;
17024;SDS011;8629;42.496;25.620;2023-07-20T14:16:38;4.50;;;3.33;;
17024;SDS011;8629;42.496;25.620;2023-07-20T14:19:06;3.88;;;3.58;;
17024;SDS011;8629;42.496;25.620;2023-07-20T14:21:33;7.45;;;3.83;;
17024;SDS011;8629;42.496;25.620;2023-07-20T14:24:00;4.70;;;3.90;;
17024;SDS011;8629;42.496;25.620;2023-07-20T14:26:27;4.78;;;3.47;;
17024;SDS011;8629;42.496;25.620;2023-07-20T14:28:54;5.63;;;3.70;;
17024;SDS011;8629;42.496;25.620;2023-07-20T14:31:21;4.57;;;4.05;;
17024;SDS011;8629;42.496;25.620;2023-07-20T14:33:48;5.32;;;3.72;;
17024;SDS011;8629;42.496;25.620;2023-07-20T14:36:17;4.95;;;4.25;;
17024;SDS011;8629;42.496;25.620;2023-07-20T14:38:44;5.57;;;4.47;;
17024;SDS011;8629;42.496;25.620;2023-07-20T14:41:11;7.18;;;4.95;;
17024;SDS011;8629;42.496;25.620;2023-07-20T14:43:40;4.40;;;3.97;;
17024;SDS011;8629;42.496;25.620;2023-07-20T14:46:06;5.53;;;4.13;;
17024;SDS011;8629;42.496;25.620;2023-07-20T14:48:33;6.63;;;4.40;;
17024;SDS011;8629;42.496;25.620;2023-07-20T14:51:00;4.43;;;4.03;;
17024;SDS011;8629;42.496;25.620;2023-07-20T14:53:29;4.40;;;4.00;;